Time;durP1;ratioP1;P1;durP2;ratioP2;P2;SDS_P1;SDS_P2;PMS_P1;PMS_P2;Temp;Humidity;BMP_temperature;BMP_pressure;BME280_temperature;BME280_humidity;BME280_pressure;Samples;Min_cycle;Max_cycle;Signal;HPM_P1;HPM_P2
2022/07/23 00:00:35;;;;;;;6.63;6.05;;;19.20;99.90;;;-141.84;64.21;20797.63;5049092;28;20308;-61
2022/07/23 00:03:06;;;;;;;7.10;6.40;;;19.10;99.90;;;-141.84;62.84;20805.75;5049394;28;20229;-61
2022/07/23 00:05:35;;;;;;;7.90;7.10;;;19.20;99.90;;;-141.84;63.88;20779.31;5051122;28;20267;-62
2022/07/23 00:08:07;;;;;;;6.40;5.90;;;19.10;99.90;;;-141.84;63.66;20791.53;5052428;28;20586;-61
2022/07/23 00:10:41;;;;;;;6.93;6.35;;;19.10;99.90;;;-141.84;62.53;20866.75;5053839;28;20205;-61
2022/07/23 00:13:10;;;;;;;7.32;6.68;;;19.20;99.90;;;-141.84;63.17;20830.16;5052973;28;20225;-62
2022/07/23 00:15:38;;;;;;;6.22;5.72;;;19.20;99.90;;;-141.84;64.38;20775.25;5053260;28;20311;-63
2022/07/23 00:18:06;;;;;;;6.68;5.93;;;19.10;99.90;;;-141.84;65.55;20740.69;5052996;28;20225;-61
2022/07/23 00:20:35;;;;;;;7.00;6.40;;;18.90;99.90;;;-141.84;64.80;20740.69;5052971;28;20225;-63
2022/07/23 00:23:03;;;;;;;9.30;7.00;;;18.90;99.90;;;-141.84;64.32;20799.66;5052724;28;20316;-62
2022/07/23 00:25:33;;;;;;;7.63;6.82;;;18.90;99.90;;;-141.84;64.55;20746.81;5053765;28;20207;-61
2022/07/23 00:28:02;;;;;;;7.97;7.05;;;18.90;99.90;;;-141.84;65.00;20734.59;5052662;28;20229;-62
2022/07/23 00:30:32;;;;;;;7.35;6.65;;;18.90;99.90;;;-141.84;63.78;20809.81;5053048;28;20264;-61
2022/07/23 00:33:05;;;;;;;8.13;7.03;;;18.90;99.90;;;-141.84;63.11;20842.34;5052589;28;20228;-61
2022/07/23 00:35:37;;;;;;;7.10;6.40;;;19.00;99.90;;;-141.84;63.52;20805.75;5052929;28;20232;-61
2022/07/23 00:38:06;;;;;;;7.28;6.55;;;19.00;99.90;;;-141.84;63.92;20779.31;5052475;28;20188;-62
2022/07/23 00:40:36;;;;;;;8.30;6.68;;;19.00;99.90;;;-141.84;63.29;20809.81;5053387;28;20213;-61
2022/07/23 00:43:04;;;;;;;7.40;6.80;;;19.10;99.90;;;-141.84;63.63;20838.28;5052277;28;20586;-61
2022/07/23 00:45:33;;;;;;;7.40;6.80;;;19.10;99.90;;;-141.84;63.48;20805.75;5051673;28;20221;-60
2022/07/23 00:48:02;;;;;;;7.30;6.70;;;19.10;99.90;;;-141.84;63.49;20809.81;5052194;28;20636;-62
2022/07/23 00:50:31;;;;;;;7.35;6.70;;;19.10;99.90;;;-141.84;63.83;20781.38;5052380;28;20217;-62
2022/07/23 00:52:59;;;;;;;7.88;7.00;;;19.10;99.90;;;-141.84;64.74;20728.50;5052186;28;20239;-63
2022/07/23 00:55:28;;;;;;;7.45;6.80;;;18.90;99.90;;;-141.84;64.17;20789.50;5053167;28;20284;-63
2022/07/23 00:57:58;;;;;;;6.97;6.38;;;19.00;99.90;;;-141.84;63.75;20820.00;5052057;28;20313;-62
2022/07/23 01:00:26;;;;;;;7.40;6.75;;;19.00;99.90;;;-141.84;62.97;20846.41;5032283;28;20721;-62
2022/07/23 01:02:55;;;;;;;7.93;7.22;;;19.10;99.90;;;-141.84;63.79;20805.75;5031997;28;20230;-62
2022/07/23 01:05:23;;;;;;;7.57;6.97;;;19.00;99.90;;;-141.84;64.25;20779.31;5032262;28;20304;-62
2022/07/23 01:07:52;;;;;;;7.10;6.40;;;18.90;99.90;;;-141.84;65.15;20704.13;5031900;28;20296;-62
2022/07/23 01:10:33;;;;;;;7.40;6.70;;;18.80;99.90;;;-141.84;64.66;20748.84;5032825;28;20186;-62
2022/07/23 01:13:07;;;;;;;7.07;6.35;;;18.90;99.90;;;-141.84;64.93;20728.50;5031959;28;20814;-61
2022/07/23 01:15:37;;;;;;;7.30;6.70;;;18.80;99.90;;;-141.84;65.41;20702.09;5038204;28;20232;-62
2022/07/23 01:18:07;;;;;;;7.25;6.60;;;18.70;99.90;;;-141.84;65.42;20716.31;5051921;28;20287;-62
2022/07/23 01:20:36;;;;;;;7.85;7.15;;;18.70;99.90;;;-141.84;63.97;20756.97;5051901;28;20603;-62
2022/07/23 01:23:06;;;;;;;8.57;6.80;;;18.70;99.90;;;-141.84;62.82;20856.56;5051703;28;20259;-61
2022/07/23 01:25:34;;;;;;;8.00;7.28;;;18.90;99.90;;;-141.84;63.73;20785.44;5052441;28;20255;-61
2022/07/23 01:28:02;;;;;;;7.78;6.68;;;18.80;99.90;;;-141.84;64.66;20740.69;5051716;28;20760;-60
2022/07/23 01:30:30;;;;;;;7.28;6.60;;;18.70;99.90;;;-141.84;64.41;20750.88;5051545;28;20256;-69
2022/07/23 01:32:58;;;;;;;8.00;7.30;;;18.70;99.90;;;-141.84;64.86;20742.75;5051657;28;20446;-69
2022/07/23 01:35:26;;;;;;;8.35;6.90;;;18.70;99.90;;;-141.84;63.54;20773.22;5051811;28;20566;-68
2022/07/23 01:37:54;;;;;;;7.80;7.03;;;18.80;99.90;;;-141.84;63.12;20795.59;5051092;28;20286;-69
2022/07/23 01:40:24;;;;;;;8.05;7.25;;;18.80;99.90;;;-141.84;63.21;20783.41;5051708;28;20316;-69
2022/07/23 01:42:54;;;;;;;7.65;6.95;;;18.80;99.90;;;-141.84;63.31;20795.59;5051422;28;20286;-69
2022/07/23 01:45:23;;;;;;;7.22;6.53;;;19.10;99.90;;;-141.84;62.86;20777.28;5051262;28;20667;-69
2022/07/23 01:47:51;;;;;;;7.93;7.25;;;18.90;99.90;;;-141.84;62.53;20777.28;5051185;28;20237;-70
2022/07/23 01:50:19;;;;;;;8.25;7.30;;;18.90;99.90;;;-141.84;63.00;20805.75;5051202;28;20308;-69
2022/07/23 01:52:47;;;;;;;7.72;6.90;;;18.90;99.90;;;-141.84;63.64;20785.44;5051434;28;20292;-69
2022/07/23 01:55:15;;;;;;;7.97;7.28;;;18.80;99.90;;;-141.84;63.15;20799.66;5051082;28;20213;-69
2022/07/23 01:57:47;;;;;;;8.63;7.85;;;18.90;99.90;;;-141.84;62.88;20785.44;5051236;28;20233;-68
2022/07/23 02:00:16;;;;;;;7.93;7.22;;;18.90;99.90;;;-141.84;63.43;20777.28;5050978;28;20327;-69
2022/07/23 02:02:44;;;;;;;8.10;7.30;;;18.80;99.90;;;-141.84;63.08;20828.13;5051236;28;20311;-69
2022/07/23 02:05:12;;;;;;;7.32;6.55;;;18.90;99.90;;;-141.84;63.85;20752.91;5050782;28;20307;-69
2022/07/23 02:07:40;;;;;;;8.77;7.68;;;18.80;99.90;;;-141.84;63.40;20754.94;5051191;28;20288;-70
2022/07/23 02:10:09;;;;;;;7.80;6.75;;;18.80;99.90;;;-141.84;63.62;20759.00;5050568;28;20226;-70
2022/07/23 02:12:38;;;;;;;8.02;7.32;;;18.80;99.90;;;-141.84;63.92;20777.28;5050799;28;20299;-69
2022/07/23 02:15:08;;;;;;;7.82;7.13;;;18.80;99.90;;;-141.84;63.93;20728.50;5050698;28;20320;-69
2022/07/23 02:17:37;;;;;;;7.75;7.00;;;18.70;99.90;;;-141.84;64.29;20732.56;5050890;28;20300;-68
2022/07/23 02:20:07;;;;;;;8.80;7.65;;;18.70;99.90;;;-141.84;64.41;20712.25;5050306;28;20633;-68
2022/07/23 02:22:36;;;;;;;8.65;7.85;;;18.70;99.90;;;-141.84;64.06;20771.19;5051099;28;20218;-67
2022/07/23 02:25:05;;;;;;;7.97;7.25;;;18.70;99.90;;;-141.84;64.07;20728.50;5050409;28;20233;-69
2022/07/23 02:27:33;;;;;;;8.38;7.57;;;18.60;99.90;;;-141.84;63.89;20691.91;5050102;28;20312;-68
2022/07/23 02:30:02;;;;;;;9.60;7.78;;;18.60;99.90;;;-141.84;64.38;20700.03;5050378;28;20316;-68
2022/07/23 02:32:32;;;;;;;7.60;7.00;;;18.50;99.90;;;-141.84;64.70;20683.78;5050239;28;20248;-69
2022/07/23 02:35:00;;;;;;;8.70;7.88;;;18.40;99.90;;;-141.84;64.88;20714.28;5050548;28;20255;-69
2022/07/23 02:37:29;;;;;;;8.27;7.47;;;18.40;99.90;;;-141.84;64.78;20722.41;5050453;28;20205;-69
2022/07/23 02:39:57;;;;;;;8.55;7.60;;;18.40;99.90;;;-141.84;65.93;20671.59;5050209;28;20311;-69
2022/07/23 02:42:26;;;;;;;8.60;7.80;;;18.30;99.90;;;-141.84;65.76;20663.47;5050241;28;20225;-69
2022/07/23 02:44:54;;;;;;;9.65;7.20;;;18.30;99.90;;;-141.84;66.47;20663.47;5050135;28;20237;-71
2022/07/23 02:47:22;;;;;;;9.02;7.30;;;18.20;99.90;;;-141.84;66.60;20649.22;5050328;28;20223;-68
2022/07/23 02:49:51;;;;;;;8.38;7.53;;;18.20;99.90;;;-141.84;65.58;20677.69;5050156;28;20307;-67
2022/07/23 02:52:19;;;;;;;9.77;7.93;;;18.20;99.90;;;-141.84;65.88;20657.34;5050692;28;20197;-68
2022/07/23 02:54:49;;;;;;;7.78;7.15;;;18.20;99.90;;;-141.84;66.24;20628.91;5049968;28;20226;-69
2022/07/23 02:57:17;;;;;;;8.18;7.38;;;18.10;99.90;;;-141.84;65.24;20687.84;5050191;28;20316;-69
2022/07/23 02:59:45;;;;;;;7.93;7.22;;;18.20;99.90;;;-141.84;65.79;20651.25;5049988;28;20724;-69
2022/07/23 03:02:13;;;;;;;7.78;7.13;;;18.10;99.90;;;-141.84;65.37;20659.38;5050282;28;20600;-68
2022/07/23 03:04:42;;;;;;;10.50;8.38;;;18.10;99.90;;;-141.84;64.71;20689.88;5050713;28;20197;-68
2022/07/23 03:07:12;;;;;;;8.43;7.53;;;18.10;99.90;;;-141.84;64.93;20657.34;5049476;28;20225;-69
2022/07/23 03:09:40;;;;;;;9.35;7.72;;;18.10;99.90;;;-141.84;64.45;20665.50;5050033;28;20279;-70
2022/07/23 03:12:09;;;;;;;8.40;7.60;;;18.10;99.90;;;-141.84;64.26;20602.47;5049975;28;20304;-68
2022/07/23 03:14:42;;;;;;;10.05;8.43;;;18.10;99.90;;;-141.84;64.00;20655.31;5049893;28;20236;-69
2022/07/23 03:17:10;;;;;;;9.07;8.18;;;18.10;99.90;;;-141.84;63.68;20677.69;5049754;28;20240;-70
2022/07/23 03:19:39;;;;;;;9.23;8.32;;;18.20;99.90;;;-141.84;63.62;20641.09;5050209;28;20237;-70
2022/07/23 03:22:07;;;;;;;8.93;8.07;;;18.10;99.90;;;-141.84;64.06;20695.97;5049372;28;20312;-68
2022/07/23 03:27:18;;;;;;;7.90;7.10;;;18.00;99.90;;;-141.84;65.30;20635.00;5047281;28;20221;-70
2022/07/23 03:29:47;;;;;;;8.35;7.55;;;17.90;99.90;;;-141.84;64.37;20643.13;5050069;28;20229;-69
2022/07/23 03:32:15;;;;;;;7.78;7.00;;;18.00;99.90;;;-141.84;64.66;20614.66;5049411;28;20321;-67
2022/07/23 03:34:43;;;;;;;8.85;7.55;;;17.90;99.90;;;-141.84;64.98;20604.50;5050285;28;20687;-69
2022/07/23 03:37:11;;;;;;;7.72;6.90;;;17.80;99.90;;;-141.84;65.04;20610.59;5049658;28;20758;-70
2022/07/23 03:39:41;;;;;;;8.13;7.20;;;17.80;99.90;;;-141.84;65.30;20594.34;5050248;28;20329;-69
2022/07/23 03:42:09;;;;;;;8.52;6.72;;;17.80;99.90;;;-141.84;64.50;20620.78;5053900;28;20312;-61
2022/07/23 03:44:38;;;;;;;7.90;6.95;;;17.80;99.90;;;-141.84;63.80;20647.19;5053782;28;20321;-61
2022/07/23 03:47:07;;;;;;;8.82;6.95;;;17.80;99.90;;;-141.84;63.36;20657.34;5053870;28;20233;-61
2022/07/23 03:49:35;;;;;;;8.77;7.32;;;17.90;99.90;;;-141.84;63.28;20637.03;5053842;28;20652;-62
2022/07/23 03:52:03;;;;;;;7.38;6.68;;;18.00;99.90;;;-141.84;63.12;20677.69;5053191;28;20225;-61
2022/07/23 03:54:31;;;;;;;8.57;7.50;;;18.00;99.90;;;-141.84;62.41;20635.00;5053435;28;20235;-60
2022/07/23 03:57:01;;;;;;;8.07;7.35;;;18.00;99.90;;;-141.84;62.67;20675.66;5053471;28;20225;-61
2022/07/23 03:59:31;;;;;;;7.53;6.80;;;18.00;99.90;;;-141.84;62.56;20687.84;5053671;28;20282;-61
2022/07/23 04:01:59;;;;;;;8.77;7.88;;;18.10;99.90;;;-141.84;62.48;20683.78;5052802;28;20243;-61
2022/07/23 04:04:28;;;;;;;8.98;7.68;;;18.10;99.90;;;-141.84;62.42;20714.28;5053545;28;20228;-61
2022/07/23 04:06:56;;;;;;;8.68;7.82;;;18.20;99.90;;;-141.84;62.80;20704.13;5052479;28;20747;-61
2022/07/23 04:09:24;;;;;;;7.97;7.18;;;18.20;99.90;;;-141.84;63.34;20655.31;5052848;28;20240;-60
2022/07/23 04:11:52;;;;;;;7.75;6.95;;;18.10;99.90;;;-141.84;64.06;20655.31;5052456;28;20625;-62
2022/07/23 04:14:21;;;;;;;8.95;7.35;;;18.00;99.90;;;-141.84;64.27;20635.00;5052970;28;20225;-62
2022/07/23 04:16:49;;;;;;;8.15;7.35;;;18.00;99.90;;;-141.84;63.09;20742.75;5053354;28;20300;-62
2022/07/23 04:19:17;;;;;;;7.60;6.90;;;18.10;99.90;;;-141.84;63.05;20691.91;5052912;28;20227;-61
2022/07/23 04:21:45;;;;;;;7.43;6.70;;;18.20;99.90;;;-141.84;62.55;20732.56;5036582;28;20260;-61
2022/07/23 04:24:14;;;;;;;7.93;6.93;;;18.20;99.90;;;-141.84;62.01;20722.41;5032559;28;20305;-61
2022/07/23 04:26:42;;;;;;;7.70;6.75;;;18.30;99.90;;;-141.84;62.84;20671.59;5032595;28;20228;-62
2022/07/23 04:29:10;;;;;;;7.50;6.78;;;18.30;99.90;;;-141.84;62.38;20722.41;5032440;28;20207;-61
2022/07/23 04:31:39;;;;;;;7.63;6.82;;;18.30;99.90;;;-141.84;62.65;20691.91;5032768;28;20230;-61
2022/07/23 04:34:07;;;;;;;8.93;7.47;;;18.20;99.90;;;-141.84;62.19;20679.72;5032283;28;20344;-61
2022/07/23 04:36:35;;;;;;;7.53;6.82;;;18.30;99.90;;;-141.84;62.33;20712.25;5032379;28;20225;-62
2022/07/23 04:39:04;;;;;;;10.35;7.00;;;18.30;99.90;;;-141.84;63.21;20693.94;5032327;28;20234;-61
2022/07/23 04:41:32;;;;;;;8.13;7.18;;;18.30;99.90;;;-141.84;64.69;20647.19;5032379;28;20229;-61
2022/07/23 04:44:02;;;;;;;9.27;7.68;;;18.10;99.90;;;-141.84;67.71;20506.94;5032108;28;20198;-61
2022/07/23 04:46:30;;;;;;;9.35;8.20;;;17.90;99.90;;;-141.84;71.01;20492.72;5032379;28;20206;-60
2022/07/23 04:49:00;;;;;;;9.70;8.05;;;17.60;99.90;;;-141.84;73.24;20472.38;5031823;28;20230;-61
2022/07/23 04:51:28;;;;;;;9.85;8.73;;;17.40;99.90;;;-141.84;74.01;20425.63;5031645;28;20225;-61
2022/07/23 04:53:57;;;;;;;9.68;8.10;;;17.10;99.90;;;-141.84;75.39;20354.47;5019423;28;20226;-60
2022/07/23 04:56:25;;;;;;;10.82;8.95;;;16.80;99.90;;;-141.84;76.59;20354.47;5027108;28;20697;-62
2022/07/23 04:58:53;;;;;;;11.82;9.10;;;16.60;99.90;;;-141.84;77.25;20332.13;5032308;28;20201;-61
2022/07/23 05:01:21;;;;;;;11.68;9.15;;;16.50;99.90;;;-141.84;77.76;20352.44;5032755;28;20194;-60
2022/07/23 05:03:49;;;;;;;10.05;8.85;;;16.40;99.90;;;-141.84;79.02;20321.97;5032181;28;20743;-60
2022/07/23 05:06:19;;;;;;;10.60;9.60;;;16.40;99.90;;;-141.84;78.41;20376.84;5032004;28;20598;-61
2022/07/23 05:08:46;;;;;;;12.00;9.23;;;16.50;99.90;;;-141.84;78.50;20319.94;5032326;28;20232;-61
2022/07/23 05:11:15;;;;;;;10.40;9.18;;;16.50;99.90;;;-141.84;77.80;20346.34;5031890;28;20324;-61
2022/07/23 05:13:42;;;;;;;11.68;9.30;;;16.50;99.90;;;-141.84;80.09;20334.16;5032415;28;20568;-61
2022/07/23 05:16:11;;;;;;;11.00;9.90;;;16.60;99.90;;;-141.84;81.47;20307.72;5031933;28;20309;-61
2022/07/23 05:18:39;;;;;;;10.63;9.57;;;16.60;99.90;;;-141.84;81.66;20297.56;5031995;28;20234;-62
2022/07/23 05:21:07;;;;;;;12.65;9.52;;;16.60;99.90;;;-141.84;82.34;20301.63;5031978;28;20232;-62
2022/07/23 05:23:36;;;;;;;10.70;9.70;;;16.50;99.90;;;-141.84;80.99;20301.63;5031956;28;20241;-61
2022/07/23 05:26:04;;;;;;;10.60;9.50;;;16.60;99.90;;;-141.84;80.77;20321.97;5031612;28;20210;-61
2022/07/23 05:28:32;;;;;;;12.07;9.55;;;16.50;99.90;;;-141.84;80.21;20362.63;5032734;28;20213;-60
2022/07/23 05:31:00;;;;;;;11.93;8.95;;;16.60;99.90;;;-141.84;80.69;20311.78;5031557;28;20236;-61
2022/07/23 05:33:30;;;;;;;12.05;10.30;;;16.50;99.90;;;-141.84;80.24;20324.00;5031709;28;20279;-60
2022/07/23 05:36:02;;;;;;;14.48;10.50;;;16.40;99.90;;;-141.84;80.45;20273.19;5031398;28;20233;-60
2022/07/23 05:38:31;;;;;;;11.23;9.82;;;16.30;99.90;;;-141.84;80.97;20265.03;5031648;28;20309;-61
2022/07/23 05:41:01;;;;;;;12.18;10.02;;;16.20;99.90;;;-141.84;81.01;20297.56;5031498;28;20204;-61
2022/07/23 05:43:30;;;;;;;11.98;9.48;;;16.20;99.90;;;-141.84;81.28;20265.03;5032433;28;20206;-61
2022/07/23 05:45:58;;;;;;;12.57;8.82;;;16.20;99.90;;;-141.84;80.16;20301.63;5031602;28;20232;-60
2022/07/23 05:48:26;;;;;;;12.32;10.20;;;16.30;99.90;;;-141.84;81.73;20287.41;5031353;28;20249;-61
2022/07/23 05:50:54;;;;;;;11.38;9.40;;;16.30;99.90;;;-141.84;81.55;20252.84;5031333;28;20240;-60
2022/07/23 05:53:22;;;;;;;11.20;10.10;;;16.30;99.90;;;-141.84;82.88;20265.03;5031547;28;20598;-61
2022/07/23 05:55:51;;;;;;;11.52;10.10;;;16.30;99.90;;;-141.84;82.91;20244.72;5031282;28;20229;-62
2022/07/23 05:58:21;;;;;;;10.85;9.75;;;16.30;99.90;;;-141.84;82.22;20281.31;5031529;28;20744;-61
2022/07/23 06:00:50;;;;;;;9.98;8.95;;;16.40;99.90;;;-141.84;81.89;20287.41;5031284;28;20253;-61
2022/07/23 06:03:18;;;;;;;10.60;9.07;;;16.40;99.90;;;-141.84;82.62;20301.63;5030506;28;20230;-61
2022/07/23 06:05:46;;;;;;;10.32;9.20;;;16.50;99.90;;;-141.84;82.08;20360.59;5031160;28;20284;-61
2022/07/23 06:08:14;;;;;;;16.45;9.27;;;16.60;99.90;;;-141.84;81.32;20305.69;5031168;28;20232;-61
2022/07/23 06:10:42;;;;;;;10.10;8.60;;;16.60;99.90;;;-141.84;80.33;20317.91;5031188;28;20574;-61
2022/07/23 06:13:10;;;;;;;10.27;9.25;;;16.60;99.90;;;-141.84;81.09;20324.00;5030840;28;20581;-62
2022/07/23 06:15:39;;;;;;;9.95;8.70;;;16.60;99.90;;;-141.84;81.71;20295.53;5031102;28;20225;-61
2022/07/23 06:18:08;;;;;;;11.40;9.00;;;16.60;99.90;;;-141.84;80.47;20338.22;5030690;28;20243;-61
2022/07/23 06:20:36;;;;;;;12.40;9.07;;;16.70;99.90;;;-141.84;77.75;20395.13;5030587;28;20747;-63
2022/07/23 06:23:05;;;;;;;10.73;9.23;;;16.90;99.90;;;-141.84;78.59;20411.41;5011297;28;20237;-61
2022/07/23 06:25:33;;;;;;;10.23;8.77;;;17.10;99.90;;;-141.84;78.70;20387.00;5011282;28;20289;-62
2022/07/23 06:28:01;;;;;;;12.00;9.38;;;17.10;99.90;;;-141.84;78.13;20441.88;5011002;28;20230;-62
2022/07/23 06:30:29;;;;;;;9.65;8.75;;;17.30;99.90;;;-141.84;77.50;20480.50;5011055;28;20230;-62
2022/07/23 06:32:59;;;;;;;10.18;9.02;;;17.50;99.90;;;-141.84;74.66;20527.25;5010809;28;20234;-61
2022/07/23 06:35:27;;;;;;;8.77;7.55;;;17.70;99.90;;;-141.84;71.62;20602.47;5010672;28;20218;-62
2022/07/23 06:37:55;;;;;;;9.85;8.40;;;18.00;99.90;;;-141.84;71.45;20704.13;5011266;28;20207;-62
2022/07/23 06:40:23;;;;;;;9.45;8.07;;;18.30;99.90;;;-141.84;69.64;20714.28;5011700;28;20207;-61
2022/07/23 06:42:51;;;;;;;8.88;7.97;;;18.60;99.90;;;-141.84;67.14;20832.19;5011457;28;20273;-62
2022/07/23 06:45:19;;;;;;;9.13;7.13;;;19.00;99.90;;;-141.84;65.77;20842.34;5015306;28;20232;-62
2022/07/23 06:47:47;;;;;;;8.40;7.03;;;19.10;99.90;;;-141.84;66.96;20809.81;5031238;28;20744;-61
2022/07/23 06:50:17;;;;;;;7.75;6.95;;;19.10;99.90;;;-141.84;67.78;20793.56;5031310;28;20305;-61
2022/07/23 06:52:45;;;;;;;7.90;7.10;;;19.10;99.90;;;-141.84;68.94;20744.78;5031916;28;20555;-61
2022/07/23 06:55:13;;;;;;;9.70;7.25;;;19.00;99.90;;;-141.84;69.06;20771.19;5030592;28;20705;-63
2022/07/23 06:57:43;;;;;;;8.95;7.32;;;19.10;99.90;;;-141.84;67.87;20756.97;5031076;28;20725;-62
2022/07/23 07:00:12;;;;;;;8.93;7.68;;;19.00;99.90;;;-141.84;69.15;20714.28;5031131;28;20318;-61
2022/07/23 07:02:40;;;;;;;8.63;7.25;;;19.00;99.90;;;-141.84;68.72;20779.31;5031196;28;20225;-61
2022/07/23 07:05:09;;;;;;;9.70;7.95;;;19.00;99.90;;;-141.84;67.50;20795.59;5025746;28;20603;-61
2022/07/23 07:07:38;;;;;;;10.57;7.72;;;19.00;99.90;;;-141.84;69.33;20754.94;5022695;28;20556;-63
2022/07/23 07:10:08;;;;;;;9.40;7.30;;;18.90;99.90;;;-141.84;70.11;20742.75;5020707;28;20301;-63
2022/07/23 07:12:42;;;;;;;8.35;7.55;;;18.90;99.90;;;-141.84;70.13;20724.44;5021764;28;20229;-63
2022/07/23 07:15:11;;;;;;;9.32;7.75;;;18.90;99.90;;;-141.84;69.90;20708.19;5021458;28;20230;-62
2022/07/23 07:17:39;;;;;;;8.23;6.88;;;18.80;99.90;;;-141.84;70.48;20738.66;5020358;28;20218;-61
2022/07/23 07:20:09;;;;;;;10.70;7.78;;;18.90;99.90;;;-141.84;70.34;20730.53;5030713;28;20206;-61
2022/07/23 07:22:38;;;;;;;8.90;7.68;;;18.90;99.90;;;-141.84;69.33;20775.25;5031418;28;20691;-62
2022/07/23 07:25:08;;;;;;;7.90;7.20;;;19.00;99.90;;;-141.84;68.14;20777.28;5028187;28;20225;-62
2022/07/23 07:27:36;;;;;;;9.57;8.27;;;18.90;99.90;;;-141.84;68.49;20787.47;5019894;28;20213;-62
2022/07/23 07:30:06;;;;;;;10.10;8.00;;;19.10;99.90;;;-141.84;67.08;20811.84;5030671;28;20236;-62
2022/07/23 07:32:36;;;;;;;9.52;8.52;;;19.00;99.90;;;-141.84;66.02;20787.47;5030855;28;20234;-61
2022/07/23 07:35:24;;;;;;;8.85;8.05;;;19.00;99.90;;;-141.84;67.38;20781.38;5030726;28;20225;-61
2022/07/23 07:37:53;;;;;;;9.73;8.38;;;18.90;99.90;;;-141.84;67.23;20775.25;5030651;28;20553;-61
2022/07/23 07:40:21;;;;;;;9.95;8.32;;;18.90;99.90;;;-141.84;68.09;20740.69;5031305;28;20208;-61
2022/07/23 07:42:52;;;;;;;10.52;8.48;;;18.80;99.90;;;-141.84;68.50;20801.69;5030664;28;20226;-61
2022/07/23 07:45:22;;;;;;;9.02;8.13;;;19.00;99.90;;;-141.84;67.50;20813.88;5030497;28;20583;-62
2022/07/23 07:47:51;;;;;;;8.85;7.70;;;19.20;99.90;;;-141.84;65.91;20844.38;5030646;28;20228;-61
2022/07/23 07:50:20;;;;;;;9.00;8.05;;;19.20;99.90;;;-141.84;67.94;20862.69;5030427;28;20226;-62
2022/07/23 07:52:49;;;;;;;9.43;8.43;;;19.30;99.90;;;-141.84;65.74;20868.78;5030661;28;20222;-62
2022/07/23 07:55:18;;;;;;;9.68;8.77;;;19.40;99.90;;;-141.84;66.36;20876.91;5050810;28;20581;-62
2022/07/23 07:57:46;;;;;;;9.38;8.30;;;19.50;99.90;;;-141.84;66.82;20850.47;5051171;28;20697;-62
2022/07/23 08:00:17;;;;;;;9.27;8.00;;;19.50;99.90;;;-141.84;66.14;20880.97;5049946;28;20302;-61
2022/07/23 08:02:50;;;;;;;10.05;8.55;;;19.50;99.90;;;-141.84;65.78;20941.97;5050456;28;20228;-62
2022/07/23 08:05:21;;;;;;;8.90;8.00;;;19.60;99.90;;;-141.84;63.75;20992.78;5049620;28;20601;-61
2022/07/23 08:07:55;;;;;;;9.13;8.23;;;19.70;99.90;;;-141.84;61.90;21122.91;5050297;28;20188;-61
2022/07/23 08:10:26;;;;;;;9.55;8.65;;;20.10;99.90;;;-141.84;60.94;21118.84;5050967;28;20201;-61
2022/07/23 08:12:57;;;;;;;9.57;8.63;;;20.30;99.90;;;-141.84;60.21;21141.19;5049075;28;20218;-62
2022/07/23 08:15:27;;;;;;;10.30;9.38;;;20.40;99.90;;;-141.84;60.26;21116.78;5049726;28;20716;-61
2022/07/23 08:17:56;;;;;;;10.07;9.18;;;20.30;99.90;;;-141.84;59.07;21177.78;5050097;28;20230;-62
2022/07/23 08:20:26;;;;;;;9.48;8.52;;;20.40;99.90;;;-141.84;59.06;21224.56;5049977;28;20229;-62
2022/07/23 08:22:58;;;;;;;10.38;9.43;;;20.60;99.90;;;-141.84;57.95;21281.47;5049821;28;20196;-62
2022/07/23 08:25:30;;;;;;;11.15;10.05;;;21.00;99.90;;;-141.84;54.82;21360.78;5048328;28;20221;-62
2022/07/23 08:28:00;;;;;;;10.73;9.73;;;21.30;99.90;;;-141.84;55.03;21362.81;5053743;28;20229;-62
2022/07/23 08:30:29;;;;;;;10.55;9.45;;;21.30;99.90;;;-141.84;55.23;21393.31;5053131;28;20299;-62
2022/07/23 08:33:01;;;;;;;11.05;9.30;;;21.30;99.90;;;-141.84;56.47;21324.19;5053512;28;20320;-62
2022/07/23 08:35:31;;;;;;;9.32;8.43;;;21.30;99.90;;;-141.84;57.26;21275.38;5053624;28;20225;-62
2022/07/23 08:38:02;;;;;;;10.73;9.63;;;21.20;99.90;;;-141.84;57.39;21222.53;5053375;28;20197;-61
2022/07/23 08:40:35;;;;;;;9.70;8.70;;;21.20;99.90;;;-141.84;58.26;21242.84;5054296;28;20188;-62
2022/07/23 08:43:14;;;;;;;10.15;9.15;;;21.20;99.90;;;-141.84;60.04;21212.34;5053607;28;20225;-61
2022/07/23 08:45:45;;;;;;;11.52;10.43;;;21.10;99.90;;;-141.84;60.46;21165.59;5053365;28;20229;-63
2022/07/23 08:48:15;;;;;;;11.35;9.52;;;20.80;99.90;;;-141.84;60.95;21112.72;5053514;28;20228;-63
2022/07/23 08:50:46;;;;;;;11.93;10.73;;;20.70;99.90;;;-141.84;61.11;21102.56;5053439;28;20229;-63
2022/07/23 08:53:16;;;;;;;12.57;11.48;;;20.60;99.90;;;-141.84;61.31;21037.50;5052772;28;20723;-62
2022/07/23 08:55:47;;;;;;;14.15;12.75;;;20.30;99.90;;;-141.84;61.72;20984.66;5053654;28;20205;-63
2022/07/23 08:58:16;;;;;;;12.55;11.27;;;20.20;99.90;;;-141.84;61.97;21033.44;5053508;28;20208;-61
2022/07/23 09:00:45;;;;;;;12.45;11.07;;;20.10;99.90;;;-141.84;61.95;21110.69;5053051;28;20225;-61
2022/07/23 09:03:19;;;;;;;11.32;10.23;;;20.30;99.90;;;-141.84;60.07;21226.59;5053157;28;20243;-62
2022/07/23 09:05:50;;;;;;;10.05;9.15;;;20.70;99.90;;;-141.84;56.91;21350.59;5053000;28;20734;-62
2022/07/23 09:08:21;;;;;;;11.68;9.88;;;21.10;99.90;;;-141.84;55.29;21356.69;5052985;28;20225;-62
2022/07/23 09:10:56;;;;;;;11.18;10.27;;;21.20;99.90;;;-141.84;57.64;21291.66;5053535;28;20263;-64
2022/07/23 09:13:33;;;;;;;12.40;10.93;;;21.10;99.90;;;-141.84;59.77;21175.75;5033484;28;20217;-61
2022/07/23 09:16:07;;;;;;;11.32;10.32;;;20.80;99.90;;;-141.84;61.77;21070.03;5032670;28;20316;-61
2022/07/23 09:18:39;;;;;;;12.00;10.80;;;20.60;99.90;;;-141.84;61.12;21057.84;5032823;28;20716;-62
2022/07/23 09:21:25;;;;;;;12.48;11.10;;;20.40;99.90;;;-141.84;63.42;21004.97;5032840;28;20229;-62
2022/07/23 09:23:58;;;;;;;12.45;11.35;;;20.40;99.90;;;-141.84;63.23;21049.72;5031778;28;20225;-63
2022/07/23 09:26:35;;;;;;;12.10;10.88;;;20.20;99.90;;;-141.84;63.26;20960.25;5032712;28;20222;-63
2022/07/23 09:29:10;;;;;;;13.50;12.20;;;20.10;99.90;;;-141.84;63.46;20919.59;5015673;28;20209;-61
2022/07/23 09:31:49;;;;;;;11.77;10.68;;;20.00;99.90;;;-141.84;64.00;20927.72;5013350;28;20413;-63
2022/07/23 09:34:21;;;;;;;13.20;12.00;;;19.90;99.90;;;-141.84;64.41;20915.53;5032982;28;20228;-61
2022/07/23 09:36:54;;;;;;;12.82;11.23;;;20.00;99.90;;;-141.84;61.97;21039.53;5031805;28;20287;-60
2022/07/23 09:39:31;;;;;;;11.65;10.55;;;20.00;99.90;;;-141.84;61.75;21027.34;5031938;28;20721;-61
2022/07/23 09:42:15;;;;;;;11.15;9.95;;;20.10;99.90;;;-141.84;62.86;21033.44;5032354;28;20743;-61
2022/07/23 09:44:46;;;;;;;11.75;10.55;;;20.20;99.90;;;-141.84;62.06;21080.19;5052210;28;20233;-62
2022/07/23 09:47:14;;;;;;;11.07;9.93;;;20.30;99.90;;;-141.84;62.13;21023.28;5052062;28;20220;-62
2022/07/23 09:50:01;;;;;;;11.80;10.63;;;20.10;99.90;;;-141.84;61.67;21011.09;5050674;28;20201;-63
2022/07/23 09:52:36;;;;;;;10.90;9.85;;;20.10;99.90;;;-141.84;60.90;21045.63;5032318;28;20768;-61
2022/07/23 09:55:07;;;;;;;10.15;9.15;;;20.20;99.90;;;-141.84;61.91;21047.69;5031509;28;20229;-63
2022/07/23 09:57:36;;;;;;;9.18;8.27;;;20.20;99.90;;;-141.84;63.12;20956.19;5031523;28;20233;-64
2022/07/23 10:00:08;;;;;;;8.10;7.32;;;20.10;99.90;;;-141.84;64.03;20972.47;5031436;28;20717;-64
2022/07/23 10:02:37;;;;;;;10.32;9.32;;;20.10;99.90;;;-141.84;61.59;21000.91;5031862;28;20232;-64
2022/07/23 10:05:08;;;;;;;10.23;8.82;;;20.10;99.90;;;-141.84;61.97;20980.59;5031867;28;20294;-62
2022/07/23 10:07:41;;;;;;;9.10;8.20;;;20.00;99.90;;;-141.84;62.01;21045.63;5022444;28;20207;-61
2022/07/23 10:10:11;;;;;;;9.40;8.50;;;20.00;99.90;;;-141.84;61.71;21053.78;5022384;28;20234;-62
2022/07/23 10:15:29;;;;;;;10.10;9.10;;;20.20;99.90;;;-141.84;58.60;21137.13;4986651;28;20235;-62
2022/07/23 10:17:57;;;;;;;9.50;8.55;;;20.40;99.90;;;-141.84;57.96;21208.28;5020641;28;20234;-63